Time;durP1;ratioP1;P1;durP2;ratioP2;P2;SDS_P1;SDS_P2;PMS_P1;PMS_P2;Temp;Humidity;BMP_temperature;BMP_pressure;BME280_temperature;BME280_humidity;BME280_pressure;Samples;Min_cycle;Max_cycle;Signal;HPM_P1;HPM_P2
2022/03/12 00:00:42;;;;;;;6.28;5.68;;;;;;;;;;4998619;28;20348;-62
2022/03/12 00:03:08;;;;;;;6.97;6.28;;;;;;;;;;4999504;28;20038;-59
2022/03/12 00:05:35;;;;;;;4.93;4.53;;;;;;;;;;5001081;28;20036;-59
2022/03/12 00:08:03;;;;;;;6.25;5.70;;;;;;;;;;5000694;28;20140;-63
2022/03/12 00:10:32;;;;;;;5.43;5.00;;;;;;;;;;4996790;28;20381;-59
2022/03/12 00:12:58;;;;;;;5.82;5.32;;;;;;;;;;4996240;28;20048;-62
2022/03/12 00:15:24;;;;;;;5.32;4.82;;;;;;;;;;4997935;28;20036;-59
2022/03/12 00:17:50;;;;;;;5.47;4.97;;;;;;;;;;5000245;28;20037;-59
2022/03/12 00:20:18;;;;;;;5.32;4.88;;;;;;;;;;4994269;28;20065;-62
2022/03/12 00:22:47;;;;;;;5.80;5.30;;;;;;;;;;4998984;28;20026;-62
2022/03/12 00:25:20;;;;;;;5.85;5.25;;;;;;;;;;5001725;28;20065;-59
2022/03/12 00:27:46;;;;;;;7.28;4.43;;;;;;;;;;4999144;28;20109;-59
2022/03/12 00:30:16;;;;;;;5.78;5.28;;;;;;;;;;4993647;28;20113;-59
2022/03/12 00:32:43;;;;;;;4.57;4.18;;;;;;;;;;4997900;28;20041;-59
2022/03/12 00:35:11;;;;;;;5.63;5.10;;;;;;;;;;4999241;28;20088;-62
2022/03/12 00:37:37;;;;;;;5.65;5.15;;;;;;;;;;4998624;28;20036;-59
2022/03/12 00:40:04;;;;;;;5.60;5.10;;;;;;;;;;4996382;28;20030;-62
2022/03/12 00:42:30;;;;;;;5.80;5.32;;;;;;;;;;4999561;28;20037;-62
2022/03/12 00:44:56;;;;;;;6.60;5.38;;;;;;;;;;4999026;28;20030;-62
2022/03/12 00:47:21;;;;;;;5.65;5.15;;;;;;;;;;4996022;28;20030;-59
2022/03/12 00:49:47;;;;;;;6.30;4.55;;;;;;;;;;4997133;28;20108;-59
2022/03/12 00:52:13;;;;;;;5.90;5.05;;;;;;;;;;4998513;28;20034;-62
2022/03/12 00:54:39;;;;;;;5.05;4.65;;;;;;;;;;5000205;28;20085;-62
2022/03/12 00:57:04;;;;;;;6.05;5.55;;;;;;;;;;5007325;28;20108;-62
2022/03/12 00:59:29;;;;;;;5.80;5.30;;;;;;;;;;4995419;28;20104;-62
2022/03/12 01:01:55;;;;;;;5.10;4.70;;;;;;;;;;4994150;28;20121;-63
2022/03/12 01:04:20;;;;;;;6.38;5.88;;;;;;;;;;4999925;28;20058;-62
2022/03/12 01:06:47;;;;;;;6.70;5.93;;;;;;;;;;5000569;28;20050;-62
2022/03/12 01:09:12;;;;;;;9.35;6.75;;;;;;;;;;4997013;28;20079;-59
2022/03/12 01:11:39;;;;;;;5.60;5.18;;;;;;;;;;4997321;28;20737;-59
2022/03/12 01:14:06;;;;;;;10.27;5.82;;;;;;;;;;4998897;28;20409;-62
2022/03/12 01:16:32;;;;;;;5.05;4.65;;;;;;;;;;5001898;28;20045;-59
2022/03/12 01:18:58;;;;;;;5.53;4.95;;;;;;;;;;4996910;28;20545;-59
2022/03/12 01:21:23;;;;;;;5.50;5.00;;;;;;;;;;4996607;28;20128;-59
2022/03/12 01:23:49;;;;;;;4.70;4.30;;;;;;;;;;4996267;28;20030;-62
2022/03/12 01:26:17;;;;;;;6.90;5.15;;;;;;;;;;4999270;28;20427;-63
2022/03/12 01:28:43;;;;;;;5.63;5.13;;;;;;;;;;4996471;28;20454;-59
2022/03/12 01:31:09;;;;;;;4.95;4.55;;;;;;;;;;4997775;28;20034;-62
2022/03/12 01:33:35;;;;;;;4.80;4.40;;;;;;;;;;4999364;28;20037;-61
2022/03/12 01:36:01;;;;;;;4.97;4.57;;;;;;;;;;4996481;28;20037;-57
2022/03/12 01:38:30;;;;;;;4.72;4.32;;;;;;;;;;4996717;28;20046;-60
2022/03/12 01:40:56;;;;;;;5.45;5.05;;;;;;;;;;4998895;28;20084;-58
2022/03/12 01:43:22;;;;;;;10.10;5.75;;;;;;;;;;4997207;28;20034;-59
2022/03/12 01:45:48;;;;;;;5.55;5.05;;;;;;;;;;4997826;28;20452;-59
2022/03/12 01:48:13;;;;;;;5.55;5.07;;;;;;;;;;4995300;28;20604;-58
2022/03/12 01:50:39;;;;;;;5.40;4.82;;;;;;;;;;4994314;28;20060;-58
2022/03/12 01:53:08;;;;;;;5.53;5.03;;;;;;;;;;4995524;28;20411;-62
2022/03/12 01:55:37;;;;;;;6.50;5.90;;;;;;;;;;4994675;28;20041;-62
2022/03/12 01:58:04;;;;;;;6.05;5.55;;;;;;;;;;4995983;28;20056;-62
2022/03/12 02:00:46;;;;;;;5.50;5.00;;;;;;;;;;5004364;28;20046;-62
2022/03/12 02:03:14;;;;;;;6.30;5.70;;;;;;;;;;5004532;28;20070;-62
2022/03/12 02:05:41;;;;;;;5.72;5.32;;;;;;;;;;5006943;28;20041;-62
2022/03/12 02:08:09;;;;;;;5.70;5.25;;;;;;;;;;5003979;28;20615;-58
2022/03/12 02:10:36;;;;;;;5.63;5.07;;;;;;;;;;5009938;28;20277;-62
2022/03/12 02:13:02;;;;;;;6.00;5.40;;;;;;;;;;5003375;28;20030;-59
2022/03/12 02:15:28;;;;;;;5.88;5.30;;;;;;;;;;5004952;28;20392;-59
2022/03/12 02:17:54;;;;;;;5.95;5.35;;;;;;;;;;5004743;28;20108;-59
2022/03/12 02:20:21;;;;;;;6.03;5.35;;;;;;;;;;5003593;28;20547;-59
2022/03/12 02:22:51;;;;;;;5.00;4.60;;;;;;;;;;5002906;28;20117;-62
2022/03/12 02:25:17;;;;;;;4.90;4.50;;;;;;;;;;5005450;28;20237;-62
2022/03/12 02:27:42;;;;;;;7.18;5.05;;;;;;;;;;5006902;28;20167;-62
2022/03/12 02:30:09;;;;;;;5.18;4.68;;;;;;;;;;5000333;28;20492;-63
2022/03/12 02:32:37;;;;;;;5.78;5.18;;;;;;;;;;5001889;28;20030;-62
2022/03/12 02:35:08;;;;;;;5.82;5.22;;;;;;;;;;5004040;28;20029;-59
2022/03/12 02:37:33;;;;;;;5.80;5.30;;;;;;;;;;5003169;28;20170;-62
2022/03/12 02:40:02;;;;;;;5.35;4.85;;;;;;;;;;5001611;28;20124;-62
2022/03/12 02:42:28;;;;;;;8.35;5.05;;;;;;;;;;5002272;28;20045;-62
2022/03/12 02:44:54;;;;;;;5.43;5.03;;;;;;;;;;5003681;28;20033;-59
2022/03/12 02:47:27;;;;;;;6.10;5.60;;;;;;;;;;5004819;28;20429;-62
2022/03/12 02:49:59;;;;;;;6.03;5.45;;;;;;;;;;5004103;28;20177;-59
2022/03/12 02:52:27;;;;;;;5.60;5.10;;;;;;;;;;5005726;28;20367;-58
2022/03/12 02:54:55;;;;;;;5.07;4.68;;;;;;;;;;5002618;28;20123;-61
2022/03/12 02:57:26;;;;;;;5.55;5.05;;;;;;;;;;5003813;28;20691;-58
2022/03/12 02:59:53;;;;;;;7.47;5.63;;;;;;;;;;5003457;28;20095;-62
2022/03/12 03:02:28;;;;;;;5.68;5.18;;;;;;;;;;5002582;28;20098;-58
2022/03/12 03:04:54;;;;;;;5.63;5.13;;;;;;;;;;5004517;28;20109;-62
2022/03/12 03:07:20;;;;;;;5.95;5.25;;;;;;;;;;5005600;28;20117;-61
2022/03/12 03:09:46;;;;;;;7.05;5.47;;;;;;;;;;5002721;28;20034;-61
2022/03/12 03:12:13;;;;;;;5.05;4.65;;;;;;;;;;4999730;28;20053;-61
2022/03/12 03:14:43;;;;;;;5.60;5.10;;;;;;;;;;5000466;28;20029;-59
2022/03/12 03:17:11;;;;;;;5.72;5.18;;;;;;;;;;5007359;28;20060;-62
2022/03/12 03:19:38;;;;;;;5.35;4.95;;;;;;;;;;4982659;28;20084;-62
2022/03/12 03:22:05;;;;;;;5.80;5.30;;;;;;;;;;4997705;28;20143;-59
2022/03/12 03:24:30;;;;;;;8.65;6.60;;;;;;;;;;5003204;28;20448;-63
2022/03/12 03:26:58;;;;;;;5.10;4.68;;;;;;;;;;4999387;28;20041;-59
2022/03/12 03:29:25;;;;;;;5.28;4.78;;;;;;;;;;4999698;28;20041;-62
2022/03/12 03:31:52;;;;;;;5.90;5.40;;;;;;;;;;5000230;28;20030;-58
2022/03/12 03:34:18;;;;;;;7.07;6.20;;;;;;;;;;5000372;28;20456;-59
2022/03/12 03:36:43;;;;;;;5.38;4.95;;;;;;;;;;4999984;28;20026;-59
2022/03/12 03:39:09;;;;;;;6.80;5.30;;;;;;;;;;5000037;28;20479;-59
2022/03/12 03:41:35;;;;;;;5.45;5.05;;;;;;;;;;4997376;28;20045;-59
2022/03/12 03:44:00;;;;;;;5.65;5.25;;;;;;;;;;4995563;28;20542;-59
2022/03/12 03:46:26;;;;;;;5.22;4.82;;;;;;;;;;4999350;28;20095;-59
2022/03/12 03:48:53;;;;;;;5.10;4.70;;;;;;;;;;5000569;28;20466;-62
2022/03/12 03:51:19;;;;;;;5.10;4.70;;;;;;;;;;4999823;28;20040;-62
2022/03/12 03:53:45;;;;;;;5.15;4.75;;;;;;;;;;5000141;28;20034;-59
2022/03/12 03:56:10;;;;;;;5.07;4.57;;;;;;;;;;5003211;28;20225;-62
2022/03/12 03:58:37;;;;;;;5.78;5.25;;;;;;;;;;5007009;28;20029;-62
2022/03/12 04:01:14;;;;;;;6.10;5.10;;;;;;;;;;5001716;28;20030;-62
2022/03/12 04:03:44;;;;;;;5.22;4.82;;;;;;;;;;5002472;28;20101;-59
2022/03/12 04:06:10;;;;;;;6.57;5.93;;;;;;;;;;5000770;28;20042;-59
2022/03/12 04:08:36;;;;;;;5.82;5.32;;;;;;;;;;5001647;28;20045;-62
2022/03/12 04:11:06;;;;;;;5.90;5.18;;;;;;;;;;5007547;28;20026;-62
2022/03/12 04:13:33;;;;;;;6.05;5.50;;;;;;;;;;5000158;28;20216;-59
2022/03/12 04:16:05;;;;;;;6.10;5.60;;;;;;;;;;4998856;28;20076;-62
2022/03/12 04:18:31;;;;;;;5.78;5.35;;;;;;;;;;5002219;28;20030;-62
2022/03/12 04:20:57;;;;;;;5.85;5.35;;;;;;;;;;5003127;28;20383;-62
2022/03/12 04:23:23;;;;;;;5.78;5.32;;;;;;;;;;4996527;28;20030;-62
2022/03/12 04:25:51;;;;;;;4.97;4.57;;;;;;;;;;4999829;28;20161;-62
2022/03/12 04:28:18;;;;;;;5.88;5.38;;;;;;;;;;4998374;28;20033;-62
2022/03/12 04:30:44;;;;;;;6.18;5.68;;;;;;;;;;4998290;28;20391;-59
2022/03/12 04:33:11;;;;;;;6.40;5.80;;;;;;;;;;5004554;28;20199;-59
2022/03/12 04:35:36;;;;;;;5.47;5.07;;;;;;;;;;4999530;28;20030;-59
2022/03/12 04:38:03;;;;;;;5.53;5.03;;;;;;;;;;4994088;28;20034;-59
2022/03/12 04:40:29;;;;;;;6.15;5.65;;;;;;;;;;4994337;28;20452;-59
2022/03/12 04:42:55;;;;;;;6.53;5.03;;;;;;;;;;4993641;28;20116;-59
2022/03/12 04:45:25;;;;;;;5.60;5.20;;;;;;;;;;4998377;28;20109;-59
2022/03/12 04:47:51;;;;;;;5.93;5.43;;;;;;;;;;4998049;28;20494;-59
2022/03/12 04:50:18;;;;;;;5.53;5.00;;;;;;;;;;4997316;28;20479;-59
2022/03/12 04:52:49;;;;;;;5.85;5.35;;;;;;;;;;5000747;28;20062;-62
2022/03/12 04:55:16;;;;;;;5.07;4.68;;;;;;;;;;4994539;28;20126;-62
2022/03/12 04:57:42;;;;;;;5.43;5.03;;;;;;;;;;4998294;28;20149;-58
2022/03/12 05:00:28;;;;;;;5.82;5.32;;;;;;;;;;4996680;28;20117;-58
2022/03/12 05:03:09;;;;;;;5.70;5.20;;;;;;;;;;4997742;28;20038;-62
2022/03/12 05:05:39;;;;;;;4.68;4.28;;;;;;;;;;5002405;28;20081;-58
2022/03/12 05:08:24;;;;;;;7.80;5.07;;;;;;;;;;4998819;28;20030;-61
2022/03/12 05:10:52;;;;;;;5.75;4.53;;;;;;;;;;4998876;28;20073;-58
2022/03/12 05:13:27;;;;;;;6.47;5.88;;;;;;;;;;4998494;28;20051;-59
2022/03/12 05:15:55;;;;;;;4.90;4.50;;;;;;;;;;4999164;28;20097;-58
2022/03/12 05:18:23;;;;;;;4.57;4.18;;;;;;;;;;4997048;28;20165;-62
2022/03/12 05:20:49;;;;;;;5.68;5.18;;;;;;;;;;5000112;28;20030;-62
2022/03/12 05:23:18;;;;;;;4.70;4.30;;;;;;;;;;4997810;28;20345;-58
2022/03/12 05:25:45;;;;;;;5.45;4.95;;;;;;;;;;4999399;28;20030;-58
2022/03/12 05:28:16;;;;;;;5.03;4.63;;;;;;;;;;4997146;28;20045;-59
2022/03/12 05:30:47;;;;;;;;;;;;;;;;;;4998613;28;20392;-61
2022/03/12 05:33:14;;;;;;;5.47;4.95;;;;;;;;;;5029122;28;19921;-62
2022/03/12 05:35:42;;;;;;;4.82;4.43;;;;;;;;;;4996831;28;20053;-62
2022/03/12 05:38:09;;;;;;;5.07;4.68;;;;;;;;;;4996706;28;20032;-61
2022/03/12 05:40:38;;;;;;;5.85;5.25;;;;;;;;;;4999301;28;20030;-62
2022/03/12 05:43:06;;;;;;;4.85;4.45;;;;;;;;;;4995217;28;20030;-62
2022/03/12 05:45:32;;;;;;;5.68;5.22;;;;;;;;;;4996889;28;20030;-57
2022/03/12 05:47:58;;;;;;;4.88;4.47;;;;;;;;;;4999009;28;20045;-58
2022/03/12 05:50:23;;;;;;;4.80;4.40;;;;;;;;;;5000667;28;20022;-58
2022/03/12 05:52:49;;;;;;;5.22;4.82;;;;;;;;;;4997832;28;20034;-59
2022/03/12 05:55:20;;;;;;;5.15;4.72;;;;;;;;;;4997578;28;20052;-58
2022/03/12 05:57:46;;;;;;;6.05;5.45;;;;;;;;;;4994291;28;20217;-61
2022/03/12 06:00:13;;;;;;;5.20;4.80;;;;;;;;;;4997438;28;20404;-58
2022/03/12 06:02:49;;;;;;;4.47;4.10;;;;;;;;;;4997862;28;20063;-58
2022/03/12 06:05:14;;;;;;;5.03;4.60;;;;;;;;;;4999388;28;20034;-59
2022/03/12 06:07:43;;;;;;;5.45;4.95;;;;;;;;;;4997563;28;20372;-58
2022/03/12 06:10:10;;;;;;;4.80;4.40;;;;;;;;;;4994938;28;20036;-62
2022/03/12 06:12:35;;;;;;;4.72;4.32;;;;;;;;;;4996988;28;20034;-62
2022/03/12 06:15:02;;;;;;;4.93;4.53;;;;;;;;;;4998377;28;20042;-58
2022/03/12 06:17:28;;;;;;;5.85;5.35;;;;;;;;;;4996367;28;20031;-62
2022/03/12 06:19:53;;;;;;;7.45;4.88;;;;;;;;;;4998508;28;20044;-62
2022/03/12 06:22:19;;;;;;;5.05;4.57;;;;;;;;;;4996642;28;20026;-62
2022/03/12 06:24:46;;;;;;;5.70;5.15;;;;;;;;;;4995392;28;20035;-62
2022/03/12 06:27:12;;;;;;;4.38;3.97;;;;;;;;;;4996578;28;20068;-59
2022/03/12 06:29:38;;;;;;;6.75;4.80;;;;;;;;;;4993430;28;20034;-59
2022/03/12 06:32:05;;;;;;;5.50;5.00;;;;;;;;;;4993572;28;20463;-62
2022/03/12 06:34:30;;;;;;;5.35;4.85;;;;;;;;;;4998618;28;20045;-62
2022/03/12 06:36:56;;;;;;;5.15;4.65;;;;;;;;;;4999087;28;20431;-59
2022/03/12 06:39:21;;;;;;;5.75;4.57;;;;;;;;;;4998865;28;20097;-60
2022/03/12 06:41:46;;;;;;;5.75;5.25;;;;;;;;;;4994652;28;20359;-59
2022/03/12 06:44:16;;;;;;;5.18;4.78;;;;;;;;;;4997524;28;20022;-60
2022/03/12 06:46:42;;;;;;;4.15;3.83;;;;;;;;;;5002808;28;20030;-60
2022/03/12 06:49:08;;;;;;;5.55;5.05;;;;;;;;;;5000361;28;20104;-60
2022/03/12 06:51:33;;;;;;;4.43;4.03;;;;;;;;;;4999775;28;20026;-60
2022/03/12 06:53:59;;;;;;;5.78;4.88;;;;;;;;;;5001690;28;20069;-60
2022/03/12 06:56:25;;;;;;;5.10;4.70;;;;;;;;;;5001343;28;20092;-60
2022/03/12 06:58:51;;;;;;;7.38;4.30;;;;;;;;;;5003291;28;20088;-60
2022/03/12 07:01:16;;;;;;;6.22;5.65;;;;;;;;;;5000035;28;20030;-60
2022/03/12 07:03:41;;;;;;;5.97;5.50;;;;;;;;;;5001682;28;20475;-59
2022/03/12 07:06:07;;;;;;;5.88;5.38;;;;;;;;;;4999525;28;20532;-59
2022/03/12 07:08:33;;;;;;;5.03;4.60;;;;;;;;;;4997832;28;20037;-59
2022/03/12 07:11:00;;;;;;;5.43;5.03;;;;;;;;;;4994961;28;20034;-60
2022/03/12 07:13:26;;;;;;;5.53;5.07;;;;;;;;;;4997771;28;20431;-60
2022/03/12 07:15:51;;;;;;;4.78;4.38;;;;;;;;;;4997717;28;20030;-59
2022/03/12 07:18:17;;;;;;;5.35;4.95;;;;;;;;;;4996055;28;20042;-60
2022/03/12 07:20:42;;;;;;;5.70;5.20;;;;;;;;;;4996605;28;20038;-60
2022/03/12 07:23:08;;;;;;;6.57;5.85;;;;;;;;;;5000304;28;20484;-61
2022/03/12 07:25:34;;;;;;;4.97;4.57;;;;;;;;;;5001162;28;20026;-60
2022/03/12 07:28:00;;;;;;;5.07;4.68;;;;;;;;;;4999133;28;20038;-59
2022/03/12 07:30:26;;;;;;;4.70;4.30;;;;;;;;;;4998957;28;20125;-59
2022/03/12 07:32:51;;;;;;;5.10;4.70;;;;;;;;;;5000635;28;20041;-60
2022/03/12 07:35:17;;;;;;;5.00;4.60;;;;;;;;;;4997553;28;20483;-60
2022/03/12 07:37:44;;;;;;;5.60;5.10;;;;;;;;;;4996084;28;20459;-59
2022/03/12 07:40:13;;;;;;;5.05;4.65;;;;;;;;;;4997916;28;20038;-60
2022/03/12 07:42:39;;;;;;;6.25;5.65;;;;;;;;;;4998483;28;20656;-60
2022/03/12 07:45:06;;;;;;;4.97;4.55;;;;;;;;;;4998860;28;20030;-60
2022/03/12 07:47:31;;;;;;;5.90;5.13;;;;;;;;;;5005638;28;20066;-60
2022/03/12 07:49:56;;;;;;;4.97;4.50;;;;;;;;;;4999042;28;20064;-61
2022/03/12 07:52:22;;;;;;;6.15;5.55;;;;;;;;;;4978556;28;20026;-61
2022/03/12 07:54:47;;;;;;;5.95;5.45;;;;;;;;;;4996855;28;20463;-61
2022/03/12 07:57:13;;;;;;;5.47;4.97;;;;;;;;;;5000319;28;20056;-61
2022/03/12 07:59:39;;;;;;;6.68;6.18;;;;;;;;;;5000422;28;20057;-61
2022/03/12 08:02:06;;;;;;;5.47;4.97;;;;;;;;;;5002079;28;20062;-62
2022/03/12 08:04:33;;;;;;;5.63;5.10;;;;;;;;;;4998098;28;20107;-61
2022/03/12 08:07:02;;;;;;;4.88;4.47;;;;;;;;;;5000703;28;20443;-61
2022/03/12 08:09:29;;;;;;;5.05;4.60;;;;;;;;;;4999706;28;20022;-61
2022/03/12 08:11:57;;;;;;;6.13;5.53;;;;;;;;;;5000182;28;20911;-61
2022/03/12 08:14:22;;;;;;;5.93;5.35;;;;;;;;;;4997137;28;20023;-61
2022/03/12 08:16:49;;;;;;;5.65;5.10;;;;;;;;;;4998038;28;20041;-61
2022/03/12 08:19:15;;;;;;;7.90;5.15;;;;;;;;;;4982364;28;20037;-60
2022/03/12 08:21:41;;;;;;;5.78;5.35;;;;;;;;;;4999419;28;20344;-61
2022/03/12 08:24:07;;;;;;;5.28;4.75;;;;;;;;;;4997806;28;20034;-62
2022/03/12 08:26:34;;;;;;;5.70;5.20;;;;;;;;;;5001765;28;20030;-62
2022/03/12 08:28:59;;;;;;;6.00;5.50;;;;;;;;;;4999574;28;20252;-60
2022/03/12 08:31:25;;;;;;;8.25;4.97;;;;;;;;;;4998231;28;20140;-60
2022/03/12 08:33:50;;;;;;;6.55;4.82;;;;;;;;;;4998824;28;20074;-61
2022/03/12 08:36:16;;;;;;;6.90;6.25;;;;;;;;;;4997340;28;20030;-61
2022/03/12 08:38:42;;;;;;;5.63;5.07;;;;;;;;;;4999831;28;20095;-61
2022/03/12 08:41:09;;;;;;;7.80;5.63;;;;;;;;;;4999435;28;20124;-61
2022/03/12 08:43:36;;;;;;;5.68;5.18;;;;;;;;;;4999239;28;20045;-61
2022/03/12 08:46:05;;;;;;;5.22;4.82;;;;;;;;;;4995071;28;20534;-61
2022/03/12 08:48:31;;;;;;;7.40;6.80;;;;;;;;;;4996156;28;20034;-60
2022/03/12 08:50:56;;;;;;;5.63;5.13;;;;;;;;;;4998184;28;20045;-62
2022/03/12 08:53:21;;;;;;;7.25;6.60;;;;;;;;;;4995352;28;20054;-62
2022/03/12 08:55:48;;;;;;;5.25;4.85;;;;;;;;;;5000190;28;20084;-61
2022/03/12 08:58:14;;;;;;;6.28;5.70;;;;;;;;;;4997833;28;20535;-62
2022/03/12 09:00:40;;;;;;;6.00;5.50;;;;;;;;;;4998908;28;20046;-62
2022/03/12 09:03:07;;;;;;;6.80;6.30;;;;;;;;;;4998250;28;20025;-62
2022/03/12 09:05:33;;;;;;;6.53;5.82;;;;;;;;;;4999907;28;20034;-63
2022/03/12 09:07:58;;;;;;;6.18;5.68;;;;;;;;;;5000351;28;20034;-61
2022/03/12 09:10:25;;;;;;;5.75;5.35;;;;;;;;;;4999433;28;20851;-61
2022/03/12 09:12:50;;;;;;;6.70;6.20;;;;;;;;;;4998089;28;20034;-63
2022/03/12 09:15:21;;;;;;;6.00;5.55;;;;;;;;;;4995286;28;20041;-61
2022/03/12 09:17:46;;;;;;;6.85;6.25;;;;;;;;;;4999662;28;20038;-61
2022/03/12 09:20:12;;;;;;;6.80;6.30;;;;;;;;;;4999519;28;20030;-60
2022/03/12 09:22:38;;;;;;;7.03;6.47;;;;;;;;;;5000011;28;20122;-62
2022/03/12 09:25:07;;;;;;;10.63;6.30;;;;;;;;;;5000354;28;20030;-60
2022/03/12 09:27:33;;;;;;;6.88;6.38;;;;;;;;;;4998013;28;20204;-60
2022/03/12 09:29:58;;;;;;;5.97;5.50;;;;;;;;;;4993352;28;20113;-62
2022/03/12 09:32:24;;;;;;;6.32;5.82;;;;;;;;;;4995369;28;20023;-60
2022/03/12 09:34:50;;;;;;;6.88;6.38;;;;;;;;;;5000957;28;20037;-62
2022/03/12 09:37:16;;;;;;;7.25;6.50;;;;;;;;;;4997845;28;20027;-61
2022/03/12 09:39:41;;;;;;;6.75;6.25;;;;;;;;;;4997413;28;20096;-61
2022/03/12 09:42:08;;;;;;;6.57;6.03;;;;;;;;;;4996980;28;20138;-62
2022/03/12 09:44:33;;;;;;;7.10;6.50;;;;;;;;;;4999223;28;20119;-63
2022/03/12 09:46:59;;;;;;;6.05;5.55;;;;;;;;;;4999504;28;20125;-62
2022/03/12 09:49:24;;;;;;;6.90;6.30;;;;;;;;;;4999736;28;20029;-62
2022/03/12 09:51:49;;;;;;;6.15;5.57;;;;;;;;;;4997941;28;20049;-64
2022/03/12 09:54:16;;;;;;;6.68;6.18;;;;;;;;;;4995894;28;20470;-62
2022/03/12 09:56:42;;;;;;;8.60;7.47;;;;;;;;;;4998745;28;20026;-61
2022/03/12 09:59:08;;;;;;;8.95;7.35;;;;;;;;;;4995721;28;20041;-62
2022/03/12 10:01:33;;;;;;;6.20;5.70;;;;;;;;;;4999008;28;20598;-61
2022/03/12 10:03:59;;;;;;;7.07;6.47;;;;;;;;;;4998554;28;20033;-61
2022/03/12 10:06:24;;;;;;;7.18;6.47;;;;;;;;;;4995183;28;20468;-61
2022/03/12 10:08:50;;;;;;;6.78;6.18;;;;;;;;;;5000676;28;20053;-61
2022/03/12 10:11:17;;;;;;;6.28;5.80;;;;;;;;;;4997260;28;20064;-61
2022/03/12 10:13:42;;;;;;;6.47;5.97;;;;;;;;;;4996486;28;20136;-62
2022/03/12 10:16:09;;;;;;;6.43;5.82;;;;;;;;;;4985223;28;20035;-62
2022/03/12 10:18:36;;;;;;;8.25;7.55;;;;;;;;;;4994077;28;20093;-65
2022/03/12 10:21:01;;;;;;;7.57;6.88;;;;;;;;;;5000744;28;20109;-65
2022/03/12 10:23:27;;;;;;;7.40;6.80;;;;;;;;;;5002143;28;20125;-64
2022/03/12 10:25:52;;;;;;;6.53;6.03;;;;;;;;;;5002023;28;20035;-61
2022/03/12 10:28:18;;;;;;;7.43;6.82;;;;;;;;;;5001771;28;20025;-64
2022/03/12 10:30:43;;;;;;;7.72;7.13;;;;;;;;;;5000703;28;20034;-65
2022/03/12 10:33:20;;;;;;;7.65;6.95;;;;;;;;;;5003261;28;20030;-64
2022/03/12 10:35:46;;;;;;;7.45;6.90;;;;;;;;;;5004374;28;20065;-64
2022/03/12 10:38:13;;;;;;;10.10;8.77;;;;;;;;;;5001620;28;20061;-64
2022/03/12 10:40:39;;;;;;;8.35;7.50;;;;;;;;;;5004011;28;20485;-64
2022/03/12 10:43:12;;;;;;;7.97;7.18;;;;;;;;;;5001962;28;20117;-65
2022/03/12 10:45:48;;;;;;;7.40;6.80;;;;;;;;;;5001471;28;20025;-63
2022/03/12 10:48:19;;;;;;;7.00;6.40;;;;;;;;;;5000481;28;20503;-64
2022/03/12 10:50:47;;;;;;;8.07;7.47;;;;;;;;;;5000670;28;20089;-65
2022/03/12 10:53:15;;;;;;;7.05;6.55;;;;;;;;;;5001116;28;20109;-65
2022/03/12 10:55:43;;;;;;;7.28;6.78;;;;;;;;;;4999929;28;20022;-63
2022/03/12 10:58:12;;;;;;;11.73;6.25;;;;;;;;;;5002555;28;20034;-63
2022/03/12 11:00:52;;;;;;;7.82;7.15;;;;;;;;;;5000754;28;20037;-65
2022/03/12 11:03:26;;;;;;;8.05;7.35;;;;;;;;;;5002681;28;20126;-65
2022/03/12 11:05:54;;;;;;;7.65;7.05;;;;;;;;;;5000938;28;20650;-65
2022/03/12 11:08:24;;;;;;;8.48;7.72;;;;;;;;;;4998155;28;20030;-64
2022/03/12 11:10:57;;;;;;;7.30;6.80;;;;;;;;;;5000731;28;20490;-65
2022/03/12 11:13:37;;;;;;;7.65;7.05;;;;;;;;;;5002523;28;20041;-64
2022/03/12 11:16:32;;;;;;;7.80;7.22;;;;;;;;;;5001585;28;20045;-64
2022/03/12 11:19:10;;;;;;;8.38;7.68;;;;;;;;;;4998015;28;20069;-65
2022/03/12 11:21:39;;;;;;;9.10;7.47;;;;;;;;;;5002886;28;20505;-64
2022/03/12 11:24:12;;;;;;;7.95;7.35;;;;;;;;;;5000731;28;20037;-64
2022/03/12 11:26:50;;;;;;;8.27;7.53;;;;;;;;;;5001047;28;20033;-64
2022/03/12 11:29:17;;;;;;;7.20;6.65;;;;;;;;;;5002417;28;20034;-65
2022/03/12 11:31:45;;;;;;;8.07;7.47;;;;;;;;;;4999464;28;20030;-65
2022/03/12 11:34:31;;;;;;;8.90;8.23;;;;;;;;;;5001823;28;20031;-65
2022/03/12 11:36:56;;;;;;;8.63;7.93;;;;;;;;;;4999312;28;20368;-66
2022/03/12 11:39:42;;;;;;;9.60;7.72;;;;;;;;;;5001580;28;20029;-65
2022/03/12 11:42:11;;;;;;;7.97;7.32;;;;;;;;;;4994674;28;20117;-64
2022/03/12 11:44:56;;;;;;;7.50;6.90;;;;;;;;;;4999312;28;20343;-64
2022/03/12 11:47:27;;;;;;;8.00;7.40;;;;;;;;;;5000728;28;20433;-64
2022/03/12 11:49:55;;;;;;;8.18;7.47;;;;;;;;;;4995353;28;20117;-66
2022/03/12 11:52:20;;;;;;;7.25;6.63;;;;;;;;;;4995692;28;20690;-67
2022/03/12 11:54:48;;;;;;;9.25;8.45;;;;;;;;;;4996773;28;20037;-65
2022/03/12 11:57:35;;;;;;;8.15;7.55;;;;;;;;;;5000833;28;20474;-65
2022/03/12 12:00:05;;;;;;;8.13;7.47;;;;;;;;;;5000775;28;20096;-66
2022/03/12 12:02:35;;;;;;;7.45;6.90;;;;;;;;;;4999683;28;20038;-64
2022/03/12 12:05:11;;;;;;;6.90;6.40;;;;;;;;;;4998040;28;20025;-65
2022/03/12 12:07:38;;;;;;;8.05;7.45;;;;;;;;;;4999906;28;20092;-67
2022/03/12 12:10:08;;;;;;;7.10;6.55;;;;;;;;;;5000661;28;20064;-66
2022/03/12 12:12:35;;;;;;;7.88;7.28;;;;;;;;;;4998637;28;20478;-64
2022/03/12 12:15:05;;;;;;;9.52;7.05;;;;;;;;;;4996728;28;20053;-64
2022/03/12 12:17:32;;;;;;;7.77;7.17;;;;;;;;;;5001821;28;20030;-64
2022/03/12 12:20:02;;;;;;;7.50;6.85;;;;;;;;;;5000385;28;20276;-64
2022/03/12 12:22:28;;;;;;;8.30;7.65;;;;;;;;;;5001815;28;20368;-64
2022/03/12 12:24:55;;;;;;;7.82;7.22;;;;;;;;;;4999311;28;20113;-65
2022/03/12 12:27:23;;;;;;;8.98;8.00;;;;;;;;;;4994668;28;20452;-64
2022/03/12 12:29:51;;;;;;;9.13;8.43;;;;;;;;;;4999959;28;20554;-64
2022/03/12 12:32:22;;;;;;;8.65;7.95;;;;;;;;;;5001609;28;20038;-64
2022/03/12 12:34:57;;;;;;;;;;;;;;;;;;4999443;28;20033;-63
2022/03/12 12:37:43;;;;;;;7.63;7.03;;;;;;;;;;4997901;28;19939;-63
2022/03/12 12:40:36;;;;;;;9.68;8.77;;;;;;;;;;4996823;28;20463;-63
2022/03/12 12:43:09;;;;;;;7.70;7.00;;;;;;;;;;4997739;28;20041;-64
2022/03/12 12:45:58;;;;;;;8.60;7.90;;;;;;;;;;5000645;28;20033;-64
2022/03/12 12:48:42;;;;;;;8.45;7.72;;;;;;;;;;4996545;28;20021;-64
2022/03/12 12:51:16;;;;;;;7.43;6.90;;;;;;;;;;5003264;28;20029;-64
2022/03/12 12:53:46;;;;;;;8.68;7.93;;;;;;;;;;4999013;28;20038;-63
2022/03/12 12:56:18;;;;;;;7.65;7.05;;;;;;;;;;4999730;28;20026;-64
2022/03/12 12:58:53;;;;;;;7.15;6.65;;;;;;;;;;5002770;28;20096;-64
2022/03/12 13:01:20;;;;;;;7.72;7.13;;;;;;;;;;5000250;28;20096;-64
2022/03/12 13:03:48;;;;;;;8.48;7.88;;;;;;;;;;5001016;28;20108;-64
2022/03/12 13:06:36;;;;;;;7.93;7.32;;;;;;;;;;4998203;28;20034;-63
2022/03/12 13:09:19;;;;;;;7.18;6.68;;;;;;;;;;4997907;28;20026;-64
2022/03/12 13:11:51;;;;;;;8.88;8.13;;;;;;;;;;5000083;28;20132;-64
2022/03/12 13:14:28;;;;;;;7.57;6.97;;;;;;;;;;4998478;28;20537;-63
2022/03/12 13:17:02;;;;;;;8.45;7.65;;;;;;;;;;5000003;28;20096;-64
2022/03/12 13:19:28;;;;;;;9.00;8.02;;;;;;;;;;4998877;28;20465;-64
2022/03/12 13:21:57;;;;;;;8.85;8.15;;;;;;;;;;5001766;28;20104;-63
2022/03/12 13:24:22;;;;;;;9.68;8.98;;;;;;;;;;4999512;28;20049;-64
2022/03/12 13:26:49;;;;;;;8.30;7.70;;;;;;;;;;4999107;28;20661;-64
2022/03/12 13:29:19;;;;;;;9.35;8.48;;;;;;;;;;4996331;28;20026;-63
2022/03/12 13:31:46;;;;;;;7.18;6.68;;;;;;;;;;5000884;28;20475;-63
2022/03/12 13:34:15;;;;;;;8.43;7.82;;;;;;;;;;4997988;28;20045;-63
2022/03/12 13:36:54;;;;;;;8.63;8.00;;;;;;;;;;4998357;28;20749;-63
2022/03/12 13:39:20;;;;;;;9.40;8.70;;;;;;;;;;4999759;28;20045;-63
2022/03/12 13:41:48;;;;;;;9.60;8.70;;;;;;;;;;4997937;28;20030;-62
2022/03/12 13:44:15;;;;;;;8.77;8.05;;;;;;;;;;4997294;28;20045;-62
2022/03/12 13:46:42;;;;;;;7.97;7.38;;;;;;;;;;4998641;28;20330;-63
2022/03/12 13:49:12;;;;;;;9.40;8.60;;;;;;;;;;4995457;28;20030;-63
2022/03/12 13:51:46;;;;;;;8.18;7.47;;;;;;;;;;5000044;28;20026;-63
2022/03/12 13:54:13;;;;;;;8.57;7.97;;;;;;;;;;4999030;28;20045;-62
2022/03/12 13:56:41;;;;;;;8.20;7.45;;;;;;;;;;4998026;28;20391;-62
2022/03/12 13:59:10;;;;;;;8.57;7.97;;;;;;;;;;4996641;28;20057;-62
2022/03/12 14:01:44;;;;;;;8.38;7.63;;;;;;;;;;4996863;28;20187;-63
2022/03/12 14:04:22;;;;;;;8.50;7.90;;;;;;;;;;4998363;28;20022;-63
2022/03/12 14:06:48;;;;;;;9.95;8.98;;;;;;;;;;5001591;28;20022;-62
2022/03/12 14:09:23;;;;;;;7.72;7.13;;;;;;;;;;4998608;28;20261;-64
2022/03/12 14:11:54;;;;;;;7.75;7.15;;;;;;;;;;4999933;28;20231;-62
2022/03/12 14:14:20;;;;;;;;;;;;;;;;;;4996805;28;20030;-62
2022/03/12 14:16:55;;;;;;;9.10;8.30;;;;;;;;;;4998377;28;20271;-63
2022/03/12 14:19:22;;;;;;;7.03;6.53;;;;;;;;;;5000352;28;20140;-62
2022/03/12 14:21:59;;;;;;;9.02;8.32;;;;;;;;;;4998126;28;20022;-63
2022/03/12 14:24:36;;;;;;;8.90;8.13;;;;;;;;;;4996640;28;20021;-63
2022/03/12 14:27:07;;;;;;;8.38;7.57;;;;;;;;;;4997283;28;20037;-63
2022/03/12 14:29:39;;;;;;;;;;;;;;;;;;4997398;28;20089;-62
2022/03/12 14:32:10;;;;;;;6.70;6.10;;;;;;;;;;4998662;28;19913;-63
2022/03/12 14:34:38;;;;;;;8.00;7.50;;;;;;;;;;4997443;28;20677;-63
2022/03/12 14:37:05;;;;;;;7.88;7.20;;;;;;;;;;4995465;28;20052;-64
2022/03/12 14:39:31;;;;;;;8.88;7.18;;;;;;;;;;4997656;28;20375;-65
2022/03/12 14:42:04;;;;;;;8.93;8.23;;;;;;;;;;4994781;28;20065;-63
2022/03/12 14:44:31;;;;;;;11.48;8.13;;;;;;;;;;4996686;28;20026;-65
2022/03/12 14:46:58;;;;;;;9.57;8.68;;;;;;;;;;4997126;28;20066;-64
2022/03/12 14:49:31;;;;;;;9.90;8.63;;;;;;;;;;4998400;28;20041;-64